sensor_id;sensor_type;location;lat;lon;timestamp;P1;durP1;ratioP1;P2;durP2;ratioP2
74401;SDS011;62837;51.082;13.744;2023-04-24T00:02:12;2.80;;;2.10;;
74401;SDS011;62837;51.082;13.744;2023-04-24T00:04:43;2.90;;;2.00;;
74401;SDS011;62837;51.082;13.744;2023-04-24T00:07:14;2.70;;;1.70;;
74401;SDS011;62837;51.082;13.744;2023-04-24T00:09:45;2.70;;;2.00;;
74401;SDS011;62837;51.082;13.744;2023-04-24T00:12:16;3.90;;;1.90;;
74401;SDS011;62837;51.082;13.744;2023-04-24T00:14:46;7.00;;;2.50;;
74401;SDS011;62837;51.082;13.744;2023-04-24T00:17:17;4.20;;;2.30;;
74401;SDS011;62837;51.082;13.744;2023-04-24T00:19:48;3.90;;;2.00;;
74401;SDS011;62837;51.082;13.744;2023-04-24T00:22:26;2.20;;;1.60;;
74401;SDS011;62837;51.082;13.744;2023-04-24T00:24:57;3.00;;;1.80;;
74401;SDS011;62837;51.082;13.744;2023-04-24T00:27:28;2.30;;;1.60;;
74401;SDS011;62837;51.082;13.744;2023-04-24T00:29:59;4.60;;;2.00;;
74401;SDS011;62837;51.082;13.744;2023-04-24T00:32:30;2.20;;;1.40;;
74401;SDS011;62837;51.082;13.744;2023-04-24T00:35:01;3.10;;;1.90;;
74401;SDS011;62837;51.082;13.744;2023-04-24T00:37:34;3.90;;;1.70;;
74401;SDS011;62837;51.082;13.744;2023-04-24T00:40:06;2.70;;;1.70;;
74401;SDS011;62837;51.082;13.744;2023-04-24T00:42:37;2.80;;;1.60;;
74401;SDS011;62837;51.082;13.744;2023-04-24T00:45:10;3.30;;;1.90;;
74401;SDS011;62837;51.082;13.744;2023-04-24T00:47:41;6.60;;;2.10;;
74401;SDS011;62837;51.082;13.744;2023-04-24T00:50:12;3.60;;;2.10;;
74401;SDS011;62837;51.082;13.744;2023-04-24T00:52:45;5.10;;;2.80;;
74401;SDS011;62837;51.082;13.744;2023-04-24T00:55:16;2.80;;;1.90;;
74401;SDS011;62837;51.082;13.744;2023-04-24T00:57:47;3.50;;;1.90;;
74401;SDS011;62837;51.082;13.744;2023-04-24T01:00:19;3.00;;;1.90;;
74401;SDS011;62837;51.082;13.744;2023-04-24T01:02:50;3.90;;;2.00;;
74401;SDS011;62837;51.082;13.744;2023-04-24T01:05:22;3.40;;;2.10;;
74401;SDS011;62837;51.082;13.744;2023-04-24T01:07:53;3.50;;;1.80;;
74401;SDS011;62837;51.082;13.744;2023-04-24T01:10:24;3.50;;;1.60;;
74401;SDS011;62837;51.082;13.744;2023-04-24T01:12:56;3.80;;;2.90;;
74401;SDS011;62837;51.082;13.744;2023-04-24T01:15:27;4.30;;;2.00;;
74401;SDS011;62837;51.082;13.744;2023-04-24T01:17:58;3.60;;;1.80;;
74401;SDS011;62837;51.082;13.744;2023-04-24T01:20:29;3.60;;;2.10;;
74401;SDS011;62837;51.082;13.744;2023-04-24T01:23:01;3.50;;;2.20;;
74401;SDS011;62837;51.082;13.744;2023-04-24T01:25:32;3.90;;;2.60;;
74401;SDS011;62837;51.082;13.744;2023-04-24T01:28:03;3.10;;;1.80;;
74401;SDS011;62837;51.082;13.744;2023-04-24T01:30:34;3.10;;;2.10;;
74401;SDS011;62837;51.082;13.744;2023-04-24T01:33:05;3.00;;;2.20;;
74401;SDS011;62837;51.082;13.744;2023-04-24T01:35:36;4.90;;;1.90;;
74401;SDS011;62837;51.082;13.744;2023-04-24T01:38:07;3.30;;;2.10;;
74401;SDS011;62837;51.082;13.744;2023-04-24T01:40:38;3.40;;;2.10;;
74401;SDS011;62837;51.082;13.744;2023-04-24T01:43:09;5.10;;;2.10;;
74401;SDS011;62837;51.082;13.744;2023-04-24T01:45:40;4.50;;;2.30;;
74401;SDS011;62837;51.082;13.744;2023-04-24T01:48:12;4.90;;;2.20;;
74401;SDS011;62837;51.082;13.744;2023-04-24T01:50:43;3.60;;;2.20;;
74401;SDS011;62837;51.082;13.744;2023-04-24T01:53:14;3.20;;;2.00;;
74401;SDS011;62837;51.082;13.744;2023-04-24T01:55:44;4.50;;;2.80;;
74401;SDS011;62837;51.082;13.744;2023-04-24T01:58:15;4.70;;;2.70;;
74401;SDS011;62837;51.082;13.744;2023-04-24T02:00:46;5.20;;;2.20;;
74401;SDS011;62837;51.082;13.744;2023-04-24T02:03:17;4.80;;;2.50;;
74401;SDS011;62837;51.082;13.744;2023-04-24T02:05:49;3.90;;;2.60;;
74401;SDS011;62837;51.082;13.744;2023-04-24T02:08:19;4.80;;;2.20;;
74401;SDS011;62837;51.082;13.744;2023-04-24T02:10:50;4.00;;;2.60;;
74401;SDS011;62837;51.082;13.744;2023-04-24T02:13:21;4.10;;;3.00;;
74401;SDS011;62837;51.082;13.744;2023-04-24T02:15:52;2.70;;;2.20;;
74401;SDS011;62837;51.082;13.744;2023-04-24T02:18:24;4.60;;;2.50;;
74401;SDS011;62837;51.082;13.744;2023-04-24T02:20:55;3.90;;;1.90;;
74401;SDS011;62837;51.082;13.744;2023-04-24T02:23:25;3.30;;;2.10;;
74401;SDS011;62837;51.082;13.744;2023-04-24T02:25:56;3.30;;;2.00;;
74401;SDS011;62837;51.082;13.744;2023-04-24T02:28:27;3.30;;;2.30;;
74401;SDS011;62837;51.082;13.744;2023-04-24T02:30:57;4.70;;;2.40;;
74401;SDS011;62837;51.082;13.744;2023-04-24T02:33:28;3.30;;;2.40;;
74401;SDS011;62837;51.082;13.744;2023-04-24T02:35:59;3.90;;;2.30;;
74401;SDS011;62837;51.082;13.744;2023-04-24T02:38:30;4.40;;;2.60;;
74401;SDS011;62837;51.082;13.744;2023-04-24T02:41:01;5.50;;;2.50;;
74401;SDS011;62837;51.082;13.744;2023-04-24T02:43:34;3.40;;;2.40;;
74401;SDS011;62837;51.082;13.744;2023-04-24T02:46:04;4.40;;;3.00;;
74401;SDS011;62837;51.082;13.744;2023-04-24T02:48:35;3.40;;;2.20;;
74401;SDS011;62837;51.082;13.744;2023-04-24T02:51:06;4.50;;;2.30;;
74401;SDS011;62837;51.082;13.744;2023-04-24T02:53:37;2.30;;;1.70;;
74401;SDS011;62837;51.082;13.744;2023-04-24T02:56:08;3.80;;;2.00;;
74401;SDS011;62837;51.082;13.744;2023-04-24T02:58:40;3.30;;;2.10;;
74401;SDS011;62837;51.082;13.744;2023-04-24T03:01:11;4.50;;;2.20;;
74401;SDS011;62837;51.082;13.744;2023-04-24T03:03:41;4.90;;;2.60;;
74401;SDS011;62837;51.082;13.744;2023-04-24T03:06:13;5.10;;;2.70;;
74401;SDS011;62837;51.082;13.744;2023-04-24T03:08:43;3.80;;;2.40;;
74401;SDS011;62837;51.082;13.744;2023-04-24T03:11:14;4.20;;;3.10;;
74401;SDS011;62837;51.082;13.744;2023-04-24T03:13:44;5.80;;;2.50;;
74401;SDS011;62837;51.082;13.744;2023-04-24T03:16:15;3.80;;;2.20;;
74401;SDS011;62837;51.082;13.744;2023-04-24T03:18:47;3.70;;;2.40;;
74401;SDS011;62837;51.082;13.744;2023-04-24T03:21:19;2.60;;;1.90;;
74401;SDS011;62837;51.082;13.744;2023-04-24T03:23:50;3.80;;;2.10;;
74401;SDS011;62837;51.082;13.744;2023-04-24T03:26:20;4.50;;;2.10;;
74401;SDS011;62837;51.082;13.744;2023-04-24T03:29:02;3.10;;;1.90;;
74401;SDS011;62837;51.082;13.744;2023-04-24T03:34:03;3.40;;;1.80;;
74401;SDS011;62837;51.082;13.744;2023-04-24T03:36:35;4.10;;;1.60;;
74401;SDS011;62837;51.082;13.744;2023-04-24T03:39:07;2.70;;;1.70;;
74401;SDS011;62837;51.082;13.744;2023-04-24T03:41:43;3.50;;;1.90;;
74401;SDS011;62837;51.082;13.744;2023-04-24T03:44:18;4.00;;;2.00;;
74401;SDS011;62837;51.082;13.744;2023-04-24T03:46:48;6.00;;;2.20;;
74401;SDS011;62837;51.082;13.744;2023-04-24T03:49:20;3.40;;;2.00;;
74401;SDS011;62837;51.082;13.744;2023-04-24T03:51:50;3.40;;;1.50;;
74401;SDS011;62837;51.082;13.744;2023-04-24T03:54:23;3.40;;;1.70;;
74401;SDS011;62837;51.082;13.744;2023-04-24T03:56:54;3.60;;;2.00;;
74401;SDS011;62837;51.082;13.744;2023-04-24T03:59:25;3.30;;;1.60;;
74401;SDS011;62837;51.082;13.744;2023-04-24T04:02:16;3.50;;;1.80;;
74401;SDS011;62837;51.082;13.744;2023-04-24T04:04:47;3.60;;;1.90;;
74401;SDS011;62837;51.082;13.744;2023-04-24T04:07:19;3.20;;;2.10;;
74401;SDS011;62837;51.082;13.744;2023-04-24T04:09:50;4.50;;;1.80;;
74401;SDS011;62837;51.082;13.744;2023-04-24T04:12:23;3.30;;;2.00;;
74401;SDS011;62837;51.082;13.744;2023-04-24T04:14:54;2.90;;;1.70;;
74401;SDS011;62837;51.082;13.744;2023-04-24T04:17:25;4.50;;;1.90;;
74401;SDS011;62837;51.082;13.744;2023-04-24T04:19:56;2.80;;;1.30;;
74401;SDS011;62837;51.082;13.744;2023-04-24T04:22:27;2.80;;;1.70;;
74401;SDS011;62837;51.082;13.744;2023-04-24T04:25:00;4.70;;;1.50;;
74401;SDS011;62837;51.082;13.744;2023-04-24T04:27:32;4.10;;;1.20;;
74401;SDS011;62837;51.082;13.744;2023-04-24T04:30:09;3.30;;;1.50;;
74401;SDS011;62837;51.082;13.744;2023-04-24T04:32:48;1.80;;;1.00;;
74401;SDS011;62837;51.082;13.744;2023-04-24T04:35:19;1.70;;;0.90;;
74401;SDS011;62837;51.082;13.744;2023-04-24T04:37:50;2.90;;;1.30;;
74401;SDS011;62837;51.082;13.744;2023-04-24T04:40:34;1.90;;;1.00;;
74401;SDS011;62837;51.082;13.744;2023-04-24T04:43:06;1.80;;;0.90;;
74401;SDS011;62837;51.082;13.744;2023-04-24T04:45:43;2.00;;;0.90;;
74401;SDS011;62837;51.082;13.744;2023-04-24T04:48:34;1.60;;;0.80;;
74401;SDS011;62837;51.082;13.744;2023-04-24T04:51:06;3.20;;;0.90;;
74401;SDS011;62837;51.082;13.744;2023-04-24T04:53:37;5.60;;;1.10;;
74401;SDS011;62837;51.082;13.744;2023-04-24T04:56:07;4.10;;;0.70;;
74401;SDS011;62837;51.082;13.744;2023-04-24T04:58:41;1.90;;;0.90;;
74401;SDS011;62837;51.082;13.744;2023-04-24T05:01:14;2.00;;;0.90;;
74401;SDS011;62837;51.082;13.744;2023-04-24T05:03:47;2.10;;;1.20;;
74401;SDS011;62837;51.082;13.744;2023-04-24T05:06:18;2.70;;;1.30;;
74401;SDS011;62837;51.082;13.744;2023-04-24T05:08:51;2.40;;;1.20;;
74401;SDS011;62837;51.082;13.744;2023-04-24T05:11:34;2.70;;;1.10;;
74401;SDS011;62837;51.082;13.744;2023-04-24T05:14:05;4.40;;;1.00;;
74401;SDS011;62837;51.082;13.744;2023-04-24T05:16:38;2.00;;;0.80;;
74401;SDS011;62837;51.082;13.744;2023-04-24T05:19:09;1.50;;;0.80;;
74401;SDS011;62837;51.082;13.744;2023-04-24T05:21:41;4.20;;;0.90;;
74401;SDS011;62837;51.082;13.744;2023-04-24T05:24:13;4.20;;;1.00;;
74401;SDS011;62837;51.082;13.744;2023-04-24T05:27:06;1.10;;;0.40;;
74401;SDS011;62837;51.082;13.744;2023-04-24T05:29:40;7.30;;;1.10;;
74401;SDS011;62837;51.082;13.744;2023-04-24T05:32:11;2.80;;;1.00;;
74401;SDS011;62837;51.082;13.744;2023-04-24T05:34:42;0.80;;;0.40;;
74401;SDS011;62837;51.082;13.744;2023-04-24T05:37:14;3.00;;;0.90;;
74401;SDS011;62837;51.082;13.744;2023-04-24T05:39:44;5.10;;;1.00;;
74401;SDS011;62837;51.082;13.744;2023-04-24T05:42:15;2.20;;;0.60;;
74401;SDS011;62837;51.082;13.744;2023-04-24T05:44:46;1.80;;;0.60;;
74401;SDS011;62837;51.082;13.744;2023-04-24T05:47:20;1.30;;;0.60;;
74401;SDS011;62837;51.082;13.744;2023-04-24T05:49:51;1.90;;;0.80;;
74401;SDS011;62837;51.082;13.744;2023-04-24T05:52:23;3.00;;;0.60;;
74401;SDS011;62837;51.082;13.744;2023-04-24T05:54:53;2.00;;;0.80;;
74401;SDS011;62837;51.082;13.744;2023-04-24T05:57:26;2.00;;;0.50;;
74401;SDS011;62837;51.082;13.744;2023-04-24T06:00:03;1.80;;;0.50;;
74401;SDS011;62837;51.082;13.744;2023-04-24T06:02:44;1.80;;;0.30;;
74401;SDS011;62837;51.082;13.744;2023-04-24T06:05:15;3.30;;;0.30;;
74401;SDS011;62837;51.082;13.744;2023-04-24T06:07:46;1.20;;;0.30;;
74401;SDS011;62837;51.082;13.744;2023-04-24T06:10:18;2.60;;;0.90;;
74401;SDS011;62837;51.082;13.744;2023-04-24T06:12:50;1.80;;;0.70;;
74401;SDS011;62837;51.082;13.744;2023-04-24T06:15:24;1.20;;;0.30;;
74401;SDS011;62837;51.082;13.744;2023-04-24T06:18:02;1.80;;;0.30;;
74401;SDS011;62837;51.082;13.744;2023-04-24T06:20:33;1.70;;;0.40;;
74401;SDS011;62837;51.082;13.744;2023-04-24T06:23:04;2.30;;;0.40;;
74401;SDS011;62837;51.082;13.744;2023-04-24T06:25:35;2.30;;;0.30;;
74401;SDS011;62837;51.082;13.744;2023-04-24T06:28:06;4.80;;;3.20;;
74401;SDS011;62837;51.082;13.744;2023-04-24T06:30:37;5.00;;;3.70;;
74401;SDS011;62837;51.082;13.744;2023-04-24T06:33:07;13.90;;;9.60;;
74401;SDS011;62837;51.082;13.744;2023-04-24T06:35:48;4.60;;;2.40;;
74401;SDS011;62837;51.082;13.744;2023-04-24T06:38:18;3.30;;;1.40;;
74401;SDS011;62837;51.082;13.744;2023-04-24T06:40:49;2.30;;;0.80;;
74401;SDS011;62837;51.082;13.744;2023-04-24T06:43:19;2.70;;;0.50;;
74401;SDS011;62837;51.082;13.744;2023-04-24T06:45:51;2.00;;;0.50;;
74401;SDS011;62837;51.082;13.744;2023-04-24T06:48:21;1.20;;;0.30;;
74401;SDS011;62837;51.082;13.744;2023-04-24T06:50:52;1.90;;;0.30;;
74401;SDS011;62837;51.082;13.744;2023-04-24T06:53:23;1.20;;;0.30;;
74401;SDS011;62837;51.082;13.744;2023-04-24T06:55:55;1.70;;;0.30;;
74401;SDS011;62837;51.082;13.744;2023-04-24T06:58:26;0.80;;;0.20;;
74401;SDS011;62837;51.082;13.744;2023-04-24T07:00:56;1.00;;;0.30;;
74401;SDS011;62837;51.082;13.744;2023-04-24T07:03:27;0.80;;;0.20;;
74401;SDS011;62837;51.082;13.744;2023-04-24T07:05:58;2.00;;;0.30;;
74401;SDS011;62837;51.082;13.744;2023-04-24T07:08:32;1.80;;;0.20;;
74401;SDS011;62837;51.082;13.744;2023-04-24T07:11:03;1.60;;;0.30;;
74401;SDS011;62837;51.082;13.744;2023-04-24T07:13:35;3.50;;;0.40;;
74401;SDS011;62837;51.082;13.744;2023-04-24T07:16:09;1.10;;;0.30;;
74401;SDS011;62837;51.082;13.744;2023-04-24T07:18:40;1.10;;;0.10;;
74401;SDS011;62837;51.082;13.744;2023-04-24T07:21:11;0.80;;;0.20;;
74401;SDS011;62837;51.082;13.744;2023-04-24T07:23:42;0.80;;;0.10;;
74401;SDS011;62837;51.082;13.744;2023-04-24T07:26:12;1.10;;;0.20;;
74401;SDS011;62837;51.082;13.744;2023-04-24T07:28:43;1.50;;;0.20;;
74401;SDS011;62837;51.082;13.744;2023-04-24T07:31:14;1.10;;;0.30;;
74401;SDS011;62837;51.082;13.744;2023-04-24T07:33:45;0.90;;;0.10;;
74401;SDS011;62837;51.082;13.744;2023-04-24T07:36:15;1.90;;;0.40;;
74401;SDS011;62837;51.082;13.744;2023-04-24T07:38:47;0.90;;;0.30;;
74401;SDS011;62837;51.082;13.744;2023-04-24T07:41:17;2.00;;;0.30;;
74401;SDS011;62837;51.082;13.744;2023-04-24T07:43:51;0.40;;;0.20;;
74401;SDS011;62837;51.082;13.744;2023-04-24T07:46:22;2.20;;;0.40;;
74401;SDS011;62837;51.082;13.744;2023-04-24T07:48:54;0.80;;;0.20;;
74401;SDS011;62837;51.082;13.744;2023-04-24T07:51:40;0.50;;;0.10;;
74401;SDS011;62837;51.082;13.744;2023-04-24T07:54:11;0.80;;;0.20;;
74401;SDS011;62837;51.082;13.744;2023-04-24T07:56:42;0.80;;;0.10;;
74401;SDS011;62837;51.082;13.744;2023-04-24T07:59:13;2.10;;;0.30;;
74401;SDS011;62837;51.082;13.744;2023-04-24T08:01:44;0.70;;;0.20;;
74401;SDS011;62837;51.082;13.744;2023-04-24T08:04:14;1.60;;;0.20;;
74401;SDS011;62837;51.082;13.744;2023-04-24T08:06:45;1.40;;;0.60;;
74401;SDS011;62837;51.082;13.744;2023-04-24T08:09:17;0.80;;;0.30;;
74401;SDS011;62837;51.082;13.744;2023-04-24T08:11:48;3.00;;;0.40;;
74401;SDS011;62837;51.082;13.744;2023-04-24T08:14:20;2.20;;;0.20;;
74401;SDS011;62837;51.082;13.744;2023-04-24T08:16:51;1.40;;;0.20;;
74401;SDS011;62837;51.082;13.744;2023-04-24T08:19:22;1.40;;;0.40;;
74401;SDS011;62837;51.082;13.744;2023-04-24T08:21:53;1.60;;;0.20;;
74401;SDS011;62837;51.082;13.744;2023-04-24T08:24:24;0.60;;;0.10;;
74401;SDS011;62837;51.082;13.744;2023-04-24T08:26:54;0.30;;;0.10;;
74401;SDS011;62837;51.082;13.744;2023-04-24T08:29:25;1.20;;;0.20;;
74401;SDS011;62837;51.082;13.744;2023-04-24T08:31:56;2.60;;;0.10;;
74401;SDS011;62837;51.082;13.744;2023-04-24T08:34:27;2.00;;;0.30;;
74401;SDS011;62837;51.082;13.744;2023-04-24T08:36:58;0.40;;;0.20;;
74401;SDS011;62837;51.082;13.744;2023-04-24T08:39:29;1.50;;;0.10;;
74401;SDS011;62837;51.082;13.744;2023-04-24T08:41:59;1.80;;;0.40;;
74401;SDS011;62837;51.082;13.744;2023-04-24T08:44:36;1.50;;;0.40;;
74401;SDS011;62837;51.082;13.744;2023-04-24T08:47:07;2.40;;;0.50;;
74401;SDS011;62837;51.082;13.744;2023-04-24T08:49:41;1.10;;;0.30;;
74401;SDS011;62837;51.082;13.744;2023-04-24T08:52:14;6.90;;;2.80;;
74401;SDS011;62837;51.082;13.744;2023-04-24T08:54:47;4.90;;;1.30;;
74401;SDS011;62837;51.082;13.744;2023-04-24T08:57:18;1.80;;;0.80;;
74401;SDS011;62837;51.082;13.744;2023-04-24T08:59:49;1.00;;;0.50;;
74401;SDS011;62837;51.082;13.744;2023-04-24T09:02:21;2.70;;;1.00;;
74401;SDS011;62837;51.082;13.744;2023-04-24T09:04:54;1.70;;;0.40;;
74401;SDS011;62837;51.082;13.744;2023-04-24T09:07:26;2.20;;;0.40;;
74401;SDS011;62837;51.082;13.744;2023-04-24T09:09:59;1.50;;;0.50;;
74401;SDS011;62837;51.082;13.744;2023-04-24T09:12:30;0.70;;;0.50;;
74401;SDS011;62837;51.082;13.744;2023-04-24T09:15:01;2.10;;;0.30;;
74401;SDS011;62837;51.082;13.744;2023-04-24T09:17:33;1.40;;;0.20;;
74401;SDS011;62837;51.082;13.744;2023-04-24T09:20:06;0.50;;;0.20;;
74401;SDS011;62837;51.082;13.744;2023-04-24T09:22:37;0.80;;;0.20;;
74401;SDS011;62837;51.082;13.744;2023-04-24T09:25:09;3.30;;;0.50;;
74401;SDS011;62837;51.082;13.744;2023-04-24T09:27:44;0.70;;;0.10;;
74401;SDS011;62837;51.082;13.744;2023-04-24T09:30:15;1.70;;;0.20;;
74401;SDS011;62837;51.082;13.744;2023-04-24T09:32:52;1.10;;;0.10;;
74401;SDS011;62837;51.082;13.744;2023-04-24T09:35:42;2.10;;;0.30;;
74401;SDS011;62837;51.082;13.744;2023-04-24T09:38:17;0.90;;;0.10;;
74401;SDS011;62837;51.082;13.744;2023-04-24T09:40:49;2.00;;;0.20;;
74401;SDS011;62837;51.082;13.744;2023-04-24T09:43:20;0.70;;;0.20;;
74401;SDS011;62837;51.082;13.744;2023-04-24T09:45:51;0.90;;;0.20;;
74401;SDS011;62837;51.082;13.744;2023-04-24T09:48:31;0.80;;;0.10;;
74401;SDS011;62837;51.082;13.744;2023-04-24T09:51:04;2.20;;;0.30;;
74401;SDS011;62837;51.082;13.744;2023-04-24T09:53:38;1.50;;;0.40;;
74401;SDS011;62837;51.082;13.744;2023-04-24T09:56:10;0.50;;;0.10;;
74401;SDS011;62837;51.082;13.744;2023-04-24T09:58:41;0.50;;;0.10;;
74401;SDS011;62837;51.082;13.744;2023-04-24T10:01:12;1.50;;;0.20;;
74401;SDS011;62837;51.082;13.744;2023-04-24T10:03:43;1.20;;;0.10;;
74401;SDS011;62837;51.082;13.744;2023-04-24T10:06:14;1.40;;;0.20;;
74401;SDS011;62837;51.082;13.744;2023-04-24T10:08:45;0.40;;;0.10;;
74401;SDS011;62837;51.082;13.744;2023-04-24T10:11:16;1.00;;;0.20;;
74401;SDS011;62837;51.082;13.744;2023-04-24T10:13:47;0.50;;;0.10;;
74401;SDS011;62837;51.082;13.744;2023-04-24T10:16:18;0.90;;;0.10;;
74401;SDS011;62837;51.082;13.744;2023-04-24T10:18:51;1.80;;;0.30;;
74401;SDS011;62837;51.082;13.744;2023-04-24T10:21:22;1.10;;;0.20;;
74401;SDS011;62837;51.082;13.744;2023-04-24T10:23:54;1.00;;;0.40;;
74401;SDS011;62837;51.082;13.744;2023-04-24T10:26:25;2.50;;;0.10;;
74401;SDS011;62837;51.082;13.744;2023-04-24T10:28:57;0.30;;;0.10;;
74401;SDS011;62837;51.082;13.744;2023-04-24T10:31:28;2.20;;;0.20;;
74401;SDS011;62837;51.082;13.744;2023-04-24T10:34:01;0.80;;;0.20;;
74401;SDS011;62837;51.082;13.744;2023-04-24T10:36:33;0.40;;;0.10;;
74401;SDS011;62837;51.082;13.744;2023-04-24T10:39:08;0.80;;;0.60;;
74401;SDS011;62837;51.082;13.744;2023-04-24T10:41:41;0.80;;;0.20;;
74401;SDS011;62837;51.082;13.744;2023-04-24T10:44:14;0.70;;;0.10;;
74401;SDS011;62837;51.082;13.744;2023-04-24T10:46:45;1.00;;;0.10;;
74401;SDS011;62837;51.082;13.744;2023-04-24T10:49:29;0.90;;;0.10;;
74401;SDS011;62837;51.082;13.744;2023-04-24T10:52:02;1.40;;;0.20;;
74401;SDS011;62837;51.082;13.744;2023-04-24T10:54:35;1.20;;;0.20;;
74401;SDS011;62837;51.082;13.744;2023-04-24T11:02:50;0.40;;;0.10;;
74401;SDS011;62837;51.082;13.744;2023-04-24T11:05:48;0.40;;;0.20;;
74401;SDS011;62837;51.082;13.744;2023-04-24T11:08:25;1.10;;;0.20;;
74401;SDS011;62837;51.082;13.744;2023-04-24T11:11:01;1.00;;;0.20;;
74401;SDS011;62837;51.082;13.744;2023-04-24T11:16:41;0.20;;;0.10;;
74401;SDS011;62837;51.082;13.744;2023-04-24T11:19:20;1.00;;;0.20;;
74401;SDS011;62837;51.082;13.744;2023-04-24T11:21:56;1.10;;;0.10;;
74401;SDS011;62837;51.082;13.744;2023-04-24T11:24:30;0.70;;;0.30;;
74401;SDS011;62837;51.082;13.744;2023-04-24T11:27:11;1.90;;;0.20;;
74401;SDS011;62837;51.082;13.744;2023-04-24T11:29:46;0.70;;;0.30;;
74401;SDS011;62837;51.082;13.744;2023-04-24T11:32:22;1.50;;;0.20;;
74401;SDS011;62837;51.082;13.744;2023-04-24T11:34:55;0.30;;;0.10;;
74401;SDS011;62837;51.082;13.744;2023-04-24T11:37:28;1.20;;;0.10;;
74401;SDS011;62837;51.082;13.744;2023-04-24T11:40:03;0.90;;;0.50;;
74401;SDS011;62837;51.082;13.744;2023-04-24T11:42:36;0.40;;;0.10;;
74401;SDS011;62837;51.082;13.744;2023-04-24T11:45:09;0.80;;;0.20;;
74401;SDS011;62837;51.082;13.744;2023-04-24T11:47:42;1.50;;;0.20;;
74401;SDS011;62837;51.082;13.744;2023-04-24T11:50:14;0.60;;;0.10;;
74401;SDS011;62837;51.082;13.744;2023-04-24T11:52:46;1.00;;;0.20;;
74401;SDS011;62837;51.082;13.744;2023-04-24T11:55:26;1.00;;;0.20;;
74401;SDS011;62837;51.082;13.744;2023-04-24T11:57:58;1.90;;;0.10;;
74401;SDS011;62837;51.082;13.744;2023-04-24T12:00:30;0.60;;;0.10;;
74401;SDS011;62837;51.082;13.744;2023-04-24T12:03:07;0.80;;;0.30;;
74401;SDS011;62837;51.082;13.744;2023-04-24T12:05:39;0.70;;;0.10;;
74401;SDS011;62837;51.082;13.744;2023-04-24T12:10:40;4.00;;;0.30;;
74401;SDS011;62837;51.082;13.744;2023-04-24T12:13:11;0.30;;;0.20;;
74401;SDS011;62837;51.082;13.744;2023-04-24T12:15:43;1.60;;;0.20;;
74401;SDS011;62837;51.082;13.744;2023-04-24T12:18:14;4.00;;;0.20;;
74401;SDS011;62837;51.082;13.744;2023-04-24T12:20:45;4.10;;;0.30;;
74401;SDS011;62837;51.082;13.744;2023-04-24T12:23:32;0.90;;;0.10;;
74401;SDS011;62837;51.082;13.744;2023-04-24T12:26:04;0.60;;;0.10;;
74401;SDS011;62837;51.082;13.744;2023-04-24T12:28:39;2.70;;;0.30;;
74401;SDS011;62837;51.082;13.744;2023-04-24T12:31:14;1.60;;;0.20;;
74401;SDS011;62837;51.082;13.744;2023-04-24T12:33:46;1.50;;;0.30;;
74401;SDS011;62837;51.082;13.744;2023-04-24T12:36:16;1.00;;;0.40;;
74401;SDS011;62837;51.082;13.744;2023-04-24T12:38:52;0.90;;;0.20;;
74401;SDS011;62837;51.082;13.744;2023-04-24T12:41:23;0.40;;;0.10;;
74401;SDS011;62837;51.082;13.744;2023-04-24T12:43:56;1.40;;;0.20;;
74401;SDS011;62837;51.082;13.744;2023-04-24T12:46:27;2.80;;;0.50;;
74401;SDS011;62837;51.082;13.744;2023-04-24T12:48:58;1.70;;;0.30;;
74401;SDS011;62837;51.082;13.744;2023-04-24T12:51:29;2.20;;;0.30;;
74401;SDS011;62837;51.082;13.744;2023-04-24T12:54:00;1.20;;;0.40;;
74401;SDS011;62837;51.082;13.744;2023-04-24T12:56:30;2.00;;;0.20;;
74401;SDS011;62837;51.082;13.744;2023-04-24T12:59:01;0.90;;;0.20;;
74401;SDS011;62837;51.082;13.744;2023-04-24T13:01:32;0.50;;;0.20;;
74401;SDS011;62837;51.082;13.744;2023-04-24T13:04:03;1.00;;;0.40;;
74401;SDS011;62837;51.082;13.744;2023-04-24T13:06:34;1.20;;;0.20;;
74401;SDS011;62837;51.082;13.744;2023-04-24T13:09:05;1.10;;;0.20;;
74401;SDS011;62837;51.082;13.744;2023-04-24T13:11:37;2.00;;;0.50;;
74401;SDS011;62837;51.082;13.744;2023-04-24T13:14:08;1.50;;;0.20;;
74401;SDS011;62837;51.082;13.744;2023-04-24T13:16:39;4.10;;;0.20;;
74401;SDS011;62837;51.082;13.744;2023-04-24T13:19:10;1.10;;;0.30;;
74401;SDS011;62837;51.082;13.744;2023-04-24T13:21:40;1.20;;;0.50;;
74401;SDS011;62837;51.082;13.744;2023-04-24T13:24:11;1.50;;;0.50;;
74401;SDS011;62837;51.082;13.744;2023-04-24T13:29:12;0.40;;;0.20;;
74401;SDS011;62837;51.082;13.744;2023-04-24T13:31:43;0.80;;;0.30;;
74401;SDS011;62837;51.082;13.744;2023-04-24T13:34:14;2.20;;;0.30;;
74401;SDS011;62837;51.082;13.744;2023-04-24T13:36:45;1.00;;;0.30;;
74401;SDS011;62837;51.082;13.744;2023-04-24T13:39:18;0.60;;;0.20;;
74401;SDS011;62837;51.082;13.744;2023-04-24T13:41:49;3.60;;;0.80;;
74401;SDS011;62837;51.082;13.744;2023-04-24T13:44:21;1.80;;;0.30;;
74401;SDS011;62837;51.082;13.744;2023-04-24T13:46:53;2.10;;;0.40;;
74401;SDS011;62837;51.082;13.744;2023-04-24T13:49:25;0.50;;;0.20;;
74401;SDS011;62837;51.082;13.744;2023-04-24T13:51:56;1.30;;;0.30;;
74401;SDS011;62837;51.082;13.744;2023-04-24T13:54:27;0.80;;;0.20;;
74401;SDS011;62837;51.082;13.744;2023-04-24T13:56:59;0.80;;;0.60;;
74401;SDS011;62837;51.082;13.744;2023-04-24T13:59:30;1.70;;;0.40;;
74401;SDS011;62837;51.082;13.744;2023-04-24T14:02:01;2.20;;;0.60;;
74401;SDS011;62837;51.082;13.744;2023-04-24T14:04:32;0.90;;;0.60;;
74401;SDS011;62837;51.082;13.744;2023-04-24T14:07:03;2.60;;;0.30;;
74401;SDS011;62837;51.082;13.744;2023-04-24T14:09:38;0.60;;;0.10;;
74401;SDS011;62837;51.082;13.744;2023-04-24T14:12:09;1.10;;;0.30;;
74401;SDS011;62837;51.082;13.744;2023-04-24T14:14:40;1.20;;;0.40;;
74401;SDS011;62837;51.082;13.744;2023-04-24T14:17:11;0.50;;;0.20;;
74401;SDS011;62837;51.082;13.744;2023-04-24T14:19:42;0.70;;;0.20;;
74401;SDS011;62837;51.082;13.744;2023-04-24T14:22:12;4.70;;;0.30;;
74401;SDS011;62837;51.082;13.744;2023-04-24T14:24:44;1.00;;;0.10;;
74401;SDS011;62837;51.082;13.744;2023-04-24T14:27:15;0.80;;;0.10;;
74401;SDS011;62837;51.082;13.744;2023-04-24T14:29:46;1.90;;;1.20;;
74401;SDS011;62837;51.082;13.744;2023-04-24T14:32:16;1.70;;;0.40;;
74401;SDS011;62837;51.082;13.744;2023-04-24T14:34:48;1.80;;;0.30;;
74401;SDS011;62837;51.082;13.744;2023-04-24T14:37:18;4.30;;;0.30;;
74401;SDS011;62837;51.082;13.744;2023-04-24T14:39:49;0.50;;;0.30;;
74401;SDS011;62837;51.082;13.744;2023-04-24T14:42:40;2.70;;;1.10;;
74401;SDS011;62837;51.082;13.744;2023-04-24T14:45:11;4.60;;;0.40;;
74401;SDS011;62837;51.082;13.744;2023-04-24T14:47:42;0.60;;;0.20;;
74401;SDS011;62837;51.082;13.744;2023-04-24T14:50:13;1.30;;;0.30;;
74401;SDS011;62837;51.082;13.744;2023-04-24T14:52:44;2.20;;;0.40;;
74401;SDS011;62837;51.082;13.744;2023-04-24T14:55:15;4.10;;;0.30;;
74401;SDS011;62837;51.082;13.744;2023-04-24T14:57:46;1.50;;;0.20;;
74401;SDS011;62837;51.082;13.744;2023-04-24T15:00:18;1.00;;;0.30;;
74401;SDS011;62837;51.082;13.744;2023-04-24T15:02:51;1.00;;;0.30;;
74401;SDS011;62837;51.082;13.744;2023-04-24T15:05:23;0.70;;;0.30;;
74401;SDS011;62837;51.082;13.744;2023-04-24T15:07:54;1.60;;;0.40;;
74401;SDS011;62837;51.082;13.744;2023-04-24T15:10:25;1.00;;;0.30;;
74401;SDS011;62837;51.082;13.744;2023-04-24T15:12:56;1.10;;;0.40;;
74401;SDS011;62837;51.082;13.744;2023-04-24T15:15:28;1.20;;;0.50;;
74401;SDS011;62837;51.082;13.744;2023-04-24T15:17:58;0.50;;;0.30;;
74401;SDS011;62837;51.082;13.744;2023-04-24T15:20:29;2.50;;;0.30;;